sensor_id;sensor_type;location;lat;lon;timestamp;pressure;altitude;pressure_sealevel;temperature;humidity
8286;BME280;4181;43.416;24.598;2023-04-07T00:00:52;99963.41;;;7.63;100.00
8286;BME280;4181;43.416;24.598;2023-04-07T00:03:18;99966.84;;;7.58;100.00
8286;BME280;4181;43.416;24.598;2023-04-07T00:05:44;99957.88;;;7.46;100.00
8286;BME280;4181;43.416;24.598;2023-04-07T00:08:10;99963.28;;;7.23;100.00
8286;BME280;4181;43.416;24.598;2023-04-07T00:10:35;99959.97;;;7.44;100.00
8286;BME280;4181;43.416;24.598;2023-04-07T00:13:01;99947.72;;;7.53;100.00
8286;BME280;4181;43.416;24.598;2023-04-07T00:15:27;99960.47;;;7.53;100.00
8286;BME280;4181;43.416;24.598;2023-04-07T00:17:53;99956.81;;;7.47;100.00
8286;BME280;4181;43.416;24.598;2023-04-07T00:20:19;99958.94;;;7.45;100.00
8286;BME280;4181;43.416;24.598;2023-04-07T00:22:44;99960.69;;;7.40;100.00
8286;BME280;4181;43.416;24.598;2023-04-07T00:25:10;99960.03;;;7.56;100.00
8286;BME280;4181;43.416;24.598;2023-04-07T00:27:36;99957.75;;;7.53;100.00
8286;BME280;4181;43.416;24.598;2023-04-07T00:30:05;99943.69;;;7.44;100.00
8286;BME280;4181;43.416;24.598;2023-04-07T00:32:31;99948.09;;;7.34;100.00
8286;BME280;4181;43.416;24.598;2023-04-07T00:34:56;99953.50;;;7.34;100.00
8286;BME280;4181;43.416;24.598;2023-04-07T00:37:22;99949.94;;;7.22;100.00
8286;BME280;4181;43.416;24.598;2023-04-07T00:39:54;99952.78;;;7.27;100.00
8286;BME280;4181;43.416;24.598;2023-04-07T00:42:21;99958.09;;;7.33;100.00
8286;BME280;4181;43.416;24.598;2023-04-07T00:44:46;99971.03;;;7.08;100.00
8286;BME280;4181;43.416;24.598;2023-04-07T00:47:12;99964.59;;;7.21;100.00
8286;BME280;4181;43.416;24.598;2023-04-07T00:49:38;99963.63;;;7.15;100.00
8286;BME280;4181;43.416;24.598;2023-04-07T00:52:04;99966.78;;;7.01;100.00
8286;BME280;4181;43.416;24.598;2023-04-07T00:54:31;99963.59;;;7.04;100.00
8286;BME280;4181;43.416;24.598;2023-04-07T00:56:56;99961.50;;;7.06;100.00
8286;BME280;4181;43.416;24.598;2023-04-07T00:59:22;99964.78;;;7.08;100.00
8286;BME280;4181;43.416;24.598;2023-04-07T01:02:06;99961.63;;;7.11;100.00
8286;BME280;4181;43.416;24.598;2023-04-07T01:04:50;99951.22;;;7.08;100.00
8286;BME280;4181;43.416;24.598;2023-04-07T01:07:29;99956.75;;;7.13;100.00
8286;BME280;4181;43.416;24.598;2023-04-07T01:10:00;99952.91;;;7.20;100.00
8286;BME280;4181;43.416;24.598;2023-04-07T01:15:11;99958.53;;;7.07;100.00
8286;BME280;4181;43.416;24.598;2023-04-07T01:17:48;99951.94;;;7.15;100.00
8286;BME280;4181;43.416;24.598;2023-04-07T01:20:19;99957.09;;;7.05;100.00
8286;BME280;4181;43.416;24.598;2023-04-07T01:22:55;99951.16;;;7.26;100.00
8286;BME280;4181;43.416;24.598;2023-04-07T01:30:56;99946.88;;;7.30;100.00
8286;BME280;4181;43.416;24.598;2023-04-07T01:33:24;99949.00;;;7.28;100.00
8286;BME280;4181;43.416;24.598;2023-04-07T01:35:52;99959.47;;;7.13;100.00
8286;BME280;4181;43.416;24.598;2023-04-07T01:38:18;99940.13;;;7.09;100.00
8286;BME280;4181;43.416;24.598;2023-04-07T01:40:46;99952.03;;;6.97;100.00
8286;BME280;4181;43.416;24.598;2023-04-07T01:43:12;99937.19;;;7.11;100.00
8286;BME280;4181;43.416;24.598;2023-04-07T01:45:38;99955.81;;;6.96;100.00
8286;BME280;4181;43.416;24.598;2023-04-07T01:48:06;99945.34;;;7.11;100.00
8286;BME280;4181;43.416;24.598;2023-04-07T01:50:32;99941.69;;;7.17;100.00
8286;BME280;4181;43.416;24.598;2023-04-07T01:52:59;99946.97;;;7.12;100.00
8286;BME280;4181;43.416;24.598;2023-04-07T01:55:25;99944.50;;;6.99;100.00
8286;BME280;4181;43.416;24.598;2023-04-07T01:57:52;99945.53;;;6.98;100.00
8286;BME280;4181;43.416;24.598;2023-04-07T02:00:18;99950.25;;;6.91;100.00
8286;BME280;4181;43.416;24.598;2023-04-07T02:02:44;99951.53;;;6.88;100.00
8286;BME280;4181;43.416;24.598;2023-04-07T02:05:14;99950.56;;;6.83;100.00
8286;BME280;4181;43.416;24.598;2023-04-07T02:07:53;99950.75;;;6.99;100.00
8286;BME280;4181;43.416;24.598;2023-04-07T02:10:22;99942.50;;;7.06;100.00
8286;BME280;4181;43.416;24.598;2023-04-07T02:12:50;99942.63;;;7.11;100.00
8286;BME280;4181;43.416;24.598;2023-04-07T02:15:17;99934.59;;;7.04;100.00
8286;BME280;4181;43.416;24.598;2023-04-07T02:17:47;99945.78;;;7.08;100.00
8286;BME280;4181;43.416;24.598;2023-04-07T02:20:14;99940.97;;;7.10;100.00
8286;BME280;4181;43.416;24.598;2023-04-07T02:22:40;99944.38;;;7.05;100.00
8286;BME280;4181;43.416;24.598;2023-04-07T02:25:29;99931.53;;;7.12;100.00
8286;BME280;4181;43.416;24.598;2023-04-07T02:27:57;99934.63;;;7.16;100.00
8286;BME280;4181;43.416;24.598;2023-04-07T02:30:24;99936.25;;;7.05;100.00
8286;BME280;4181;43.416;24.598;2023-04-07T02:32:51;99934.56;;;6.93;100.00
8286;BME280;4181;43.416;24.598;2023-04-07T02:35:16;99940.59;;;7.06;100.00
8286;BME280;4181;43.416;24.598;2023-04-07T02:37:43;99947.19;;;6.99;100.00
8286;BME280;4181;43.416;24.598;2023-04-07T02:40:09;99943.06;;;7.08;100.00
8286;BME280;4181;43.416;24.598;2023-04-07T02:42:34;99944.13;;;7.07;100.00
8286;BME280;4181;43.416;24.598;2023-04-07T02:45:02;99939.78;;;7.06;100.00
8286;BME280;4181;43.416;24.598;2023-04-07T02:47:28;99946.13;;;7.00;100.00
8286;BME280;4181;43.416;24.598;2023-04-07T02:49:53;99942.75;;;7.04;100.00
8286;BME280;4181;43.416;24.598;2023-04-07T02:52:19;99937.38;;;6.98;100.00
8286;BME280;4181;43.416;24.598;2023-04-07T02:54:44;99944.34;;;6.94;100.00
8286;BME280;4181;43.416;24.598;2023-04-07T02:57:10;99935.75;;;6.97;100.00
8286;BME280;4181;43.416;24.598;2023-04-07T02:59:35;99940.03;;;7.16;100.00
8286;BME280;4181;43.416;24.598;2023-04-07T03:02:01;99945.31;;;6.99;100.00
8286;BME280;4181;43.416;24.598;2023-04-07T03:04:26;99952.13;;;6.90;100.00
8286;BME280;4181;43.416;24.598;2023-04-07T03:06:52;99957.88;;;6.82;100.00
8286;BME280;4181;43.416;24.598;2023-04-07T03:09:17;99950.13;;;6.86;100.00
8286;BME280;4181;43.416;24.598;2023-04-07T03:11:43;99951.75;;;6.87;100.00
8286;BME280;4181;43.416;24.598;2023-04-07T03:14:08;99949.44;;;7.02;100.00
8286;BME280;4181;43.416;24.598;2023-04-07T03:16:34;99957.56;;;7.02;100.00
8286;BME280;4181;43.416;24.598;2023-04-07T03:19:00;99955.69;;;7.02;100.00
8286;BME280;4181;43.416;24.598;2023-04-07T03:21:26;99954.41;;;7.16;100.00
8286;BME280;4181;43.416;24.598;2023-04-07T03:23:53;99951.22;;;7.19;100.00
8286;BME280;4181;43.416;24.598;2023-04-07T03:26:18;99959.84;;;7.28;100.00
8286;BME280;4181;43.416;24.598;2023-04-07T03:28:44;99957.00;;;7.23;100.00
8286;BME280;4181;43.416;24.598;2023-04-07T03:31:09;99955.25;;;7.28;100.00
8286;BME280;4181;43.416;24.598;2023-04-07T03:33:35;99963.16;;;7.30;100.00
8286;BME280;4181;43.416;24.598;2023-04-07T03:36:00;99962.13;;;7.31;100.00
8286;BME280;4181;43.416;24.598;2023-04-07T03:38:26;99959.84;;;7.28;100.00
8286;BME280;4181;43.416;24.598;2023-04-07T03:40:51;99964.84;;;7.31;100.00
8286;BME280;4181;43.416;24.598;2023-04-07T03:43:16;99965.38;;;7.21;100.00
8286;BME280;4181;43.416;24.598;2023-04-07T03:45:43;99971.19;;;7.25;100.00
8286;BME280;4181;43.416;24.598;2023-04-07T03:48:09;99965.41;;;7.33;100.00
8286;BME280;4181;43.416;24.598;2023-04-07T03:50:39;99968.72;;;7.35;100.00
8286;BME280;4181;43.416;24.598;2023-04-07T03:53:06;99973.63;;;7.15;100.00
8286;BME280;4181;43.416;24.598;2023-04-07T03:55:33;99986.50;;;7.19;100.00
8286;BME280;4181;43.416;24.598;2023-04-07T03:57:59;99984.59;;;7.08;100.00
8286;BME280;4181;43.416;24.598;2023-04-07T04:00:25;99990.25;;;7.07;100.00
8286;BME280;4181;43.416;24.598;2023-04-07T04:02:51;99987.66;;;7.12;100.00
8286;BME280;4181;43.416;24.598;2023-04-07T04:05:17;99974.94;;;7.12;100.00
8286;BME280;4181;43.416;24.598;2023-04-07T04:07:42;99980.41;;;7.24;100.00
8286;BME280;4181;43.416;24.598;2023-04-07T04:10:08;99989.66;;;7.05;100.00
8286;BME280;4181;43.416;24.598;2023-04-07T04:12:33;99981.78;;;7.15;100.00
8286;BME280;4181;43.416;24.598;2023-04-07T04:14:59;99980.41;;;7.24;100.00
8286;BME280;4181;43.416;24.598;2023-04-07T04:17:24;99989.13;;;7.26;100.00
8286;BME280;4181;43.416;24.598;2023-04-07T04:19:51;99994.63;;;7.19;100.00
8286;BME280;4181;43.416;24.598;2023-04-07T04:22:16;100003.25;;;7.28;100.00
8286;BME280;4181;43.416;24.598;2023-04-07T04:24:42;99982.41;;;7.40;100.00
8286;BME280;4181;43.416;24.598;2023-04-07T04:27:07;99988.78;;;7.22;100.00
8286;BME280;4181;43.416;24.598;2023-04-07T04:29:33;99984.63;;;7.31;100.00
8286;BME280;4181;43.416;24.598;2023-04-07T04:31:58;99996.56;;;7.42;100.00
8286;BME280;4181;43.416;24.598;2023-04-07T04:34:24;100000.81;;;7.49;100.00
8286;BME280;4181;43.416;24.598;2023-04-07T04:36:50;99995.38;;;7.49;100.00
8286;BME280;4181;43.416;24.598;2023-04-07T04:39:15;99997.78;;;7.69;100.00
8286;BME280;4181;43.416;24.598;2023-04-07T04:41:41;100001.91;;;7.83;100.00
8286;BME280;4181;43.416;24.598;2023-04-07T04:44:06;100001.53;;;7.80;100.00
8286;BME280;4181;43.416;24.598;2023-04-07T04:46:32;100003.47;;;7.79;100.00
8286;BME280;4181;43.416;24.598;2023-04-07T04:48:57;100008.41;;;7.70;100.00
8286;BME280;4181;43.416;24.598;2023-04-07T04:51:24;100008.53;;;7.64;100.00
8286;BME280;4181;43.416;24.598;2023-04-07T04:53:50;100004.50;;;7.78;100.00
8286;BME280;4181;43.416;24.598;2023-04-07T04:56:16;100013.72;;;7.77;100.00
8286;BME280;4181;43.416;24.598;2023-04-07T04:58:41;100018.31;;;7.77;100.00
8286;BME280;4181;43.416;24.598;2023-04-07T05:01:11;100010.41;;;7.75;100.00
8286;BME280;4181;43.416;24.598;2023-04-07T05:03:36;100021.63;;;7.79;100.00
8286;BME280;4181;43.416;24.598;2023-04-07T05:06:02;100022.81;;;7.83;100.00
8286;BME280;4181;43.416;24.598;2023-04-07T05:08:28;100019.03;;;7.84;100.00
8286;BME280;4181;43.416;24.598;2023-04-07T05:10:53;100024.22;;;7.97;100.00
8286;BME280;4181;43.416;24.598;2023-04-07T05:13:20;100029.66;;;7.85;100.00
8286;BME280;4181;43.416;24.598;2023-04-07T05:15:45;100036.28;;;7.89;100.00
8286;BME280;4181;43.416;24.598;2023-04-07T05:18:11;100039.00;;;7.89;100.00
8286;BME280;4181;43.416;24.598;2023-04-07T05:20:36;100050.09;;;7.99;100.00
8286;BME280;4181;43.416;24.598;2023-04-07T05:23:02;100042.50;;;8.01;100.00
8286;BME280;4181;43.416;24.598;2023-04-07T05:25:28;100044.44;;;8.01;100.00
8286;BME280;4181;43.416;24.598;2023-04-07T05:27:53;100041.72;;;8.01;100.00
8286;BME280;4181;43.416;24.598;2023-04-07T05:30:25;100037.69;;;8.03;100.00
8286;BME280;4181;43.416;24.598;2023-04-07T05:32:51;100050.09;;;7.88;100.00
8286;BME280;4181;43.416;24.598;2023-04-07T05:35:17;100054.81;;;7.92;100.00
8286;BME280;4181;43.416;24.598;2023-04-07T05:37:43;100048.31;;;8.05;100.00
8286;BME280;4181;43.416;24.598;2023-04-07T05:40:08;100047.75;;;8.03;100.00
8286;BME280;4181;43.416;24.598;2023-04-07T05:42:34;100048.91;;;8.07;100.00
8286;BME280;4181;43.416;24.598;2023-04-07T05:45:00;100047.97;;;8.13;100.00
8286;BME280;4181;43.416;24.598;2023-04-07T05:47:25;100052.69;;;8.17;100.00
8286;BME280;4181;43.416;24.598;2023-04-07T05:49:50;100047.16;;;8.24;100.00
8286;BME280;4181;43.416;24.598;2023-04-07T05:52:16;100036.25;;;8.35;100.00
8286;BME280;4181;43.416;24.598;2023-04-07T05:54:41;100042.75;;;8.46;100.00
8286;BME280;4181;43.416;24.598;2023-04-07T05:57:07;100036.25;;;8.47;100.00
8286;BME280;4181;43.416;24.598;2023-04-07T05:59:34;100043.22;;;8.43;100.00
8286;BME280;4181;43.416;24.598;2023-04-07T06:01:59;100035.88;;;8.43;100.00
8286;BME280;4181;43.416;24.598;2023-04-07T06:04:25;100038.22;;;8.51;100.00
8286;BME280;4181;43.416;24.598;2023-04-07T06:06:50;100038.78;;;8.65;100.00
8286;BME280;4181;43.416;24.598;2023-04-07T06:09:23;100040.91;;;8.74;100.00
8286;BME280;4181;43.416;24.598;2023-04-07T06:11:48;100043.88;;;8.61;100.00
8286;BME280;4181;43.416;24.598;2023-04-07T06:14:16;100051.00;;;8.62;100.00
8286;BME280;4181;43.416;24.598;2023-04-07T06:16:42;100053.81;;;8.67;100.00
8286;BME280;4181;43.416;24.598;2023-04-07T06:19:07;100061.19;;;8.83;100.00
8286;BME280;4181;43.416;24.598;2023-04-07T06:21:33;100048.09;;;8.80;100.00
8286;BME280;4181;43.416;24.598;2023-04-07T06:23:59;100048.44;;;8.84;100.00
8286;BME280;4181;43.416;24.598;2023-04-07T06:26:25;100042.56;;;9.04;100.00
8286;BME280;4181;43.416;24.598;2023-04-07T06:28:52;100038.84;;;9.10;100.00
8286;BME280;4181;43.416;24.598;2023-04-07T06:31:18;100046.81;;;9.28;100.00
8286;BME280;4181;43.416;24.598;2023-04-07T06:33:44;100034.88;;;9.45;100.00
8286;BME280;4181;43.416;24.598;2023-04-07T06:36:10;100034.28;;;9.60;100.00
8286;BME280;4181;43.416;24.598;2023-04-07T06:38:36;100034.78;;;9.73;100.00
8286;BME280;4181;43.416;24.598;2023-04-07T06:41:01;100034.69;;;9.85;100.00
8286;BME280;4181;43.416;24.598;2023-04-07T06:43:27;100032.84;;;10.07;100.00
8286;BME280;4181;43.416;24.598;2023-04-07T06:45:52;100029.72;;;10.15;100.00
8286;BME280;4181;43.416;24.598;2023-04-07T06:48:19;100026.47;;;10.35;100.00
8286;BME280;4181;43.416;24.598;2023-04-07T06:50:46;100023.38;;;10.48;100.00
8286;BME280;4181;43.416;24.598;2023-04-07T06:53:11;100021.34;;;10.60;100.00
8286;BME280;4181;43.416;24.598;2023-04-07T06:55:37;100025.84;;;10.71;100.00
8286;BME280;4181;43.416;24.598;2023-04-07T06:58:02;99991.56;;;10.58;100.00
8286;BME280;4181;43.416;24.598;2023-04-07T07:00:28;100019.09;;;10.78;100.00
8286;BME280;4181;43.416;24.598;2023-04-07T07:02:55;100020.31;;;10.87;100.00
8286;BME280;4181;43.416;24.598;2023-04-07T07:05:21;100019.06;;;11.00;100.00
8286;BME280;4181;43.416;24.598;2023-04-07T07:07:48;100013.81;;;11.20;100.00
8286;BME280;4181;43.416;24.598;2023-04-07T07:10:14;100011.59;;;11.43;100.00
8286;BME280;4181;43.416;24.598;2023-04-07T07:12:40;100014.44;;;11.59;100.00
8286;BME280;4181;43.416;24.598;2023-04-07T07:15:06;100016.28;;;11.75;100.00
8286;BME280;4181;43.416;24.598;2023-04-07T07:17:31;100016.41;;;11.95;100.00
8286;BME280;4181;43.416;24.598;2023-04-07T07:19:57;100009.22;;;12.25;100.00
8286;BME280;4181;43.416;24.598;2023-04-07T07:22:22;100016.78;;;12.60;100.00
8286;BME280;4181;43.416;24.598;2023-04-07T07:24:48;99999.34;;;12.86;100.00
8286;BME280;4181;43.416;24.598;2023-04-07T07:27:13;99995.03;;;13.10;100.00
8286;BME280;4181;43.416;24.598;2023-04-07T07:29:38;99994.00;;;13.26;100.00
8286;BME280;4181;43.416;24.598;2023-04-07T07:32:04;99990.72;;;13.64;100.00
8286;BME280;4181;43.416;24.598;2023-04-07T07:34:30;99991.78;;;13.98;100.00
8286;BME280;4181;43.416;24.598;2023-04-07T07:36:55;99982.69;;;14.33;100.00
8286;BME280;4181;43.416;24.598;2023-04-07T07:39:21;99982.88;;;14.57;100.00
8286;BME280;4181;43.416;24.598;2023-04-07T07:41:48;99977.59;;;14.70;100.00
8286;BME280;4181;43.416;24.598;2023-04-07T07:44:14;99973.31;;;14.98;100.00
8286;BME280;4181;43.416;24.598;2023-04-07T07:46:40;99962.69;;;15.25;100.00
8286;BME280;4181;43.416;24.598;2023-04-07T07:49:05;99960.41;;;15.42;100.00
8286;BME280;4181;43.416;24.598;2023-04-07T07:51:32;99964.16;;;15.51;100.00
8286;BME280;4181;43.416;24.598;2023-04-07T07:53:57;99968.84;;;15.51;100.00
8286;BME280;4181;43.416;24.598;2023-04-07T07:56:23;99963.50;;;15.64;100.00
8286;BME280;4181;43.416;24.598;2023-04-07T07:58:48;99960.81;;;15.88;100.00
8286;BME280;4181;43.416;24.598;2023-04-07T08:01:14;99965.66;;;15.96;100.00
8286;BME280;4181;43.416;24.598;2023-04-07T08:03:39;99973.06;;;16.00;100.00
8286;BME280;4181;43.416;24.598;2023-04-07T08:06:05;99976.91;;;15.99;100.00
8286;BME280;4181;43.416;24.598;2023-04-07T08:08:33;99979.97;;;15.98;100.00
8286;BME280;4181;43.416;24.598;2023-04-07T08:10:59;99993.22;;;15.62;100.00
8286;BME280;4181;43.416;24.598;2023-04-07T08:13:25;99989.41;;;15.58;100.00
8286;BME280;4181;43.416;24.598;2023-04-07T08:15:50;99997.81;;;15.33;100.00
8286;BME280;4181;43.416;24.598;2023-04-07T08:18:16;100001.03;;;15.06;100.00
8286;BME280;4181;43.416;24.598;2023-04-07T08:20:41;100020.63;;;14.85;100.00
8286;BME280;4181;43.416;24.598;2023-04-07T08:23:07;100026.69;;;14.87;100.00
8286;BME280;4181;43.416;24.598;2023-04-07T08:25:33;100024.44;;;14.94;100.00
8286;BME280;4181;43.416;24.598;2023-04-07T08:27:59;100010.56;;;15.14;100.00
8286;BME280;4181;43.416;24.598;2023-04-07T08:30:25;100010.16;;;15.41;100.00
8286;BME280;4181;43.416;24.598;2023-04-07T08:32:50;100007.66;;;15.44;100.00
8286;BME280;4181;43.416;24.598;2023-04-07T08:35:16;100009.06;;;15.37;100.00
8286;BME280;4181;43.416;24.598;2023-04-07T08:37:41;100019.31;;;15.26;100.00
8286;BME280;4181;43.416;24.598;2023-04-07T08:40:09;100011.63;;;15.23;100.00
8286;BME280;4181;43.416;24.598;2023-04-07T08:42:41;100016.97;;;15.04;100.00
8286;BME280;4181;43.416;24.598;2023-04-07T08:45:08;100024.44;;;14.94;100.00
8286;BME280;4181;43.416;24.598;2023-04-07T08:47:34;100028.63;;;14.76;100.00
8286;BME280;4181;43.416;24.598;2023-04-07T08:50:06;100033.94;;;14.53;100.00
8286;BME280;4181;43.416;24.598;2023-04-07T08:52:34;100038.38;;;14.34;100.00
8286;BME280;4181;43.416;24.598;2023-04-07T08:55:02;100050.47;;;14.18;100.00
8286;BME280;4181;43.416;24.598;2023-04-07T08:57:31;100057.34;;;13.95;100.00
8286;BME280;4181;43.416;24.598;2023-04-07T08:59:58;100048.28;;;13.94;100.00
8286;BME280;4181;43.416;24.598;2023-04-07T09:02:28;100058.69;;;13.62;100.00
8286;BME280;4181;43.416;24.598;2023-04-07T09:04:55;100059.25;;;13.74;100.00
8286;BME280;4181;43.416;24.598;2023-04-07T09:07:21;100059.81;;;13.76;100.00
8286;BME280;4181;43.416;24.598;2023-04-07T09:09:46;100062.25;;;13.48;100.00
8286;BME280;4181;43.416;24.598;2023-04-07T09:12:12;100066.06;;;13.32;100.00
8286;BME280;4181;43.416;24.598;2023-04-07T09:14:37;100068.50;;;13.18;100.00
8286;BME280;4181;43.416;24.598;2023-04-07T09:17:03;100078.31;;;13.04;100.00
8286;BME280;4181;43.416;24.598;2023-04-07T09:19:29;100075.28;;;13.06;100.00
8286;BME280;4181;43.416;24.598;2023-04-07T09:21:55;100090.94;;;13.15;100.00
8286;BME280;4181;43.416;24.598;2023-04-07T09:24:26;100071.81;;;13.35;100.00
8286;BME280;4181;43.416;24.598;2023-04-07T09:27:11;100057.88;;;13.62;100.00
8286;BME280;4181;43.416;24.598;2023-04-07T09:29:39;100069.91;;;13.46;100.00
8286;BME280;4181;43.416;24.598;2023-04-07T09:32:05;100060.84;;;13.40;100.00
8286;BME280;4181;43.416;24.598;2023-04-07T09:34:31;100070.78;;;13.56;100.00
8286;BME280;4181;43.416;24.598;2023-04-07T09:37:04;100065.56;;;13.70;100.00
8286;BME280;4181;43.416;24.598;2023-04-07T09:39:30;100064.75;;;13.79;100.00
8286;BME280;4181;43.416;24.598;2023-04-07T09:41:56;100066.63;;;13.44;100.00
8286;BME280;4181;43.416;24.598;2023-04-07T09:44:23;100083.56;;;13.21;100.00
8286;BME280;4181;43.416;24.598;2023-04-07T09:46:54;100084.41;;;13.21;100.00
8286;BME280;4181;43.416;24.598;2023-04-07T09:49:24;100085.34;;;12.95;100.00
8286;BME280;4181;43.416;24.598;2023-04-07T09:51:55;100105.81;;;12.77;100.00
8286;BME280;4181;43.416;24.598;2023-04-07T09:54:35;100100.63;;;12.81;100.00
8286;BME280;4181;43.416;24.598;2023-04-07T09:57:03;100103.94;;;12.83;100.00
8286;BME280;4181;43.416;24.598;2023-04-07T09:59:30;100102.75;;;12.69;100.00
8286;BME280;4181;43.416;24.598;2023-04-07T10:01:56;100104.41;;;12.65;100.00
8286;BME280;4181;43.416;24.598;2023-04-07T10:04:23;100098.94;;;12.70;100.00
8286;BME280;4181;43.416;24.598;2023-04-07T10:06:49;100094.59;;;12.79;100.00
8286;BME280;4181;43.416;24.598;2023-04-07T10:09:15;100086.72;;;12.93;100.00
8286;BME280;4181;43.416;24.598;2023-04-07T10:11:42;100082.47;;;13.12;100.00
8286;BME280;4181;43.416;24.598;2023-04-07T10:14:09;100090.41;;;13.18;100.00
8286;BME280;4181;43.416;24.598;2023-04-07T10:16:38;100080.53;;;13.12;100.00
8286;BME280;4181;43.416;24.598;2023-04-07T10:19:05;100088.47;;;13.14;100.00
8286;BME280;4181;43.416;24.598;2023-04-07T10:21:33;100109.50;;;12.98;100.00
8286;BME280;4181;43.416;24.598;2023-04-07T10:26:54;100079.56;;;13.68;100.00
8286;BME280;4181;43.416;24.598;2023-04-07T10:29:22;100085.06;;;13.88;100.00
8286;BME280;4181;43.416;24.598;2023-04-07T10:31:48;100083.94;;;13.99;100.00
8286;BME280;4181;43.416;24.598;2023-04-07T10:34:14;100086.13;;;14.13;100.00
8286;BME280;4181;43.416;24.598;2023-04-07T10:37:10;100080.09;;;14.26;100.00
8286;BME280;4181;43.416;24.598;2023-04-07T10:39:37;100087.25;;;14.17;100.00
8286;BME280;4181;43.416;24.598;2023-04-07T10:42:03;100095.47;;;14.02;100.00
8286;BME280;4181;43.416;24.598;2023-04-07T10:47:04;100095.19;;;13.93;100.00
8286;BME280;4181;43.416;24.598;2023-04-07T10:49:34;100097.66;;;13.89;100.00
8286;BME280;4181;43.416;24.598;2023-04-07T10:54:38;100091.06;;;13.85;100.00
8286;BME280;4181;43.416;24.598;2023-04-07T10:57:08;100083.94;;;13.94;100.00
8286;BME280;4181;43.416;24.598;2023-04-07T10:59:37;100086.13;;;14.08;100.00
8286;BME280;4181;43.416;24.598;2023-04-07T11:04:39;100080.66;;;14.33;100.00
8286;BME280;4181;43.416;24.598;2023-04-07T11:07:06;100091.34;;;14.14;100.00
8286;BME280;4181;43.416;24.598;2023-04-07T11:09:32;100082.84;;;14.11;100.00
8286;BME280;4181;43.416;24.598;2023-04-07T11:11:57;100089.44;;;13.84;100.00
8286;BME280;4181;43.416;24.598;2023-04-07T11:14:30;100077.91;;;14.08;100.00
8286;BME280;4181;43.416;24.598;2023-04-07T11:16:58;100078.72;;;14.18;100.00
8286;BME280;4181;43.416;24.598;2023-04-07T11:19:25;100080.66;;;14.18;100.00
8286;BME280;4181;43.416;24.598;2023-04-07T11:22:14;100072.13;;;14.19;100.00
8286;BME280;4181;43.416;24.598;2023-04-07T11:24:41;100075.16;;;14.23;100.00
8286;BME280;4181;43.416;24.598;2023-04-07T11:27:11;100079.00;;;14.12;100.00
8286;BME280;4181;43.416;24.598;2023-04-07T11:29:37;100090.28;;;14.05;100.00
8286;BME280;4181;43.416;24.598;2023-04-07T11:32:03;100070.50;;;14.23;100.00
8286;BME280;4181;43.416;24.598;2023-04-07T11:34:32;100075.16;;;14.33;100.00
8286;BME280;4181;43.416;24.598;2023-04-07T11:37:17;100075.16;;;14.33;100.00
8286;BME280;4181;43.416;24.598;2023-04-07T11:39:43;100059.75;;;14.52;100.00
8286;BME280;4181;43.416;24.598;2023-04-07T11:42:11;100063.03;;;14.54;100.00
8286;BME280;4181;43.416;24.598;2023-04-07T11:44:44;100058.63;;;14.58;100.00
8286;BME280;4181;43.416;24.598;2023-04-07T11:47:10;100060.03;;;14.60;100.00
8286;BME280;4181;43.416;24.598;2023-04-07T11:49:43;100061.63;;;14.66;100.00
8286;BME280;4181;43.416;24.598;2023-04-07T11:52:16;100066.31;;;14.61;100.00
8286;BME280;4181;43.416;24.598;2023-04-07T11:54:43;100063.53;;;14.66;100.00
8286;BME280;4181;43.416;24.598;2023-04-07T11:57:11;100070.72;;;14.57;100.00
8286;BME280;4181;43.416;24.598;2023-04-07T11:59:37;100069.09;;;14.46;100.00
8286;BME280;4181;43.416;24.598;2023-04-07T12:02:03;100071.06;;;14.25;100.00
8286;BME280;4181;43.416;24.598;2023-04-07T12:04:29;100083.94;;;14.25;100.00
8286;BME280;4181;43.416;24.598;2023-04-07T12:07:06;100079.56;;;14.29;100.00
8286;BME280;4181;43.416;24.598;2023-04-07T12:09:33;100087.75;;;14.24;100.00
8286;BME280;4181;43.416;24.598;2023-04-07T12:12:04;100085.06;;;14.04;100.00
8286;BME280;4181;43.416;24.598;2023-04-07T12:14:33;100097.94;;;13.88;100.00
8286;BME280;4181;43.416;24.598;2023-04-07T12:16:58;100091.63;;;13.92;100.00
8286;BME280;4181;43.416;24.598;2023-04-07T12:19:28;100096.56;;;14.06;100.00
8286;BME280;4181;43.416;24.598;2023-04-07T12:21:54;100096.56;;;13.95;100.00
8286;BME280;4181;43.416;24.598;2023-04-07T12:24:19;100097.66;;;13.89;100.00
8286;BME280;4181;43.416;24.598;2023-04-07T12:26:46;100107.25;;;13.92;100.00
8286;BME280;4181;43.416;24.598;2023-04-07T12:29:12;100099.00;;;13.82;100.00
8286;BME280;4181;43.416;24.598;2023-04-07T12:31:38;100105.88;;;13.64;100.00
8286;BME280;4181;43.416;24.598;2023-04-07T12:34:03;100111.63;;;13.63;100.00
8286;BME280;4181;43.416;24.598;2023-04-07T12:36:29;100111.91;;;13.71;100.00
8286;BME280;4181;43.416;24.598;2023-04-07T12:38:55;100118.22;;;13.82;100.00
8286;BME280;4181;43.416;24.598;2023-04-07T12:41:20;100119.06;;;13.87;100.00
8286;BME280;4181;43.416;24.598;2023-04-07T12:43:46;100110.81;;;13.87;100.00
8286;BME280;4181;43.416;24.598;2023-04-07T12:46:12;100110.28;;;14.00;100.00
8286;BME280;4181;43.416;24.598;2023-04-07T12:48:38;100113.00;;;14.06;100.00
8286;BME280;4181;43.416;24.598;2023-04-07T12:51:04;100120.72;;;14.04;100.00
8286;BME280;4181;43.416;24.598;2023-04-07T12:53:31;100120.97;;;13.97;100.00
8286;BME280;4181;43.416;24.598;2023-04-07T12:55:57;100119.06;;;14.02;100.00
8286;BME280;4181;43.416;24.598;2023-04-07T12:58:23;100119.59;;;13.89;100.00
8286;BME280;4181;43.416;24.598;2023-04-07T13:00:50;100123.16;;;13.75;100.00
8286;BME280;4181;43.416;24.598;2023-04-07T13:03:16;100127.81;;;13.69;100.00
8286;BME280;4181;43.416;24.598;2023-04-07T13:05:42;100123.44;;;13.73;100.00
8286;BME280;4181;43.416;24.598;2023-04-07T13:08:07;100130.53;;;13.69;100.00
8286;BME280;4181;43.416;24.598;2023-04-07T13:10:33;100132.19;;;13.70;100.00
8286;BME280;4181;43.416;24.598;2023-04-07T13:12:58;100134.38;;;13.63;100.00
8286;BME280;4181;43.416;24.598;2023-04-07T13:15:23;100133.56;;;13.68;100.00
8286;BME280;4181;43.416;24.598;2023-04-07T13:17:50;100136.56;;;13.61;100.00